Live Cam St.gallen

Webcam Flughafen St.Gallen-Altenrhein Live-Bilder und Zeitraffer LSZR / ACH. Live aus Altenrhein. LIVE LSZR 181750Z AUTO 24004KT 200V290 9999 -RA FEW070 BKN080 BKN100 /////TCU 19/10 Q1013 Zeitraffer heute. 2020-06-18 00:14:53 LSZR 172150Z AUTO VRB01KT 9999 BKN090 13/12 Q1015 Destinationen ab Altenrhein.

Die aktuelle Wettersituation am Säntis-Gipfel und der Schwägalp sehen Sie auf unseren Live-Webcams und der Wetterprognose. Erleben Sie das Säntis-Panorama.

Live Cam St.gallen. Juni 9, 2020 von admin. Video Feed DIE THEMEN +++ Vater klagt an: Auch mein Kind wurde von Sandra M. misshandelt +++ Ausschreitungen in Minneapolis: Trump droht. Hackensack, New Jersey (ots/PRNewswire) – Multi-Kamera-Übertragungen über 5G-Netze mit einem einzigen Gerät: Die LU800 verändert die Spielregeln für die Produktion von Live-Nachrichten und dynamischen. Der.

Im Zentrum von London demonstrieren hunderte Menschen gegen Rassismus. Zugleich versammeln sich rechtsextreme Demonstranten.

Webcam Flughafen St.Gallen-Altenrhein Live-Bilder und Zeitraffer LSZR / ACH. Live aus Altenrhein. LIVE LSZR 041020Z VRB01KT 9999 -RA BKN060 16/14 Q0999 NOSIG RMK D Zeitraffer heute. 2020-06-04 00:13:55 LSZR 032150Z AUTO 15006KT 120V190 9999 SCT090 BKN100 19/09 Q1003 Destinationen ab. Der ganz grosse Befreiungsschlag ist es noch nicht. Wohl aber ein entscheidender.

Die Macherinnen und Macher hinter der Fernsehkamera sind guten Mutes. Niemand kann die Resonanz voraussagen, wenn die Super.

Webcams St. Gallen. Karte Karte ausblenden Kennst du weitere Webcams in der Region? [email protected] Keine Webcams verfügbar. Weitere Cams in der Umgebung. Wetterstationen in der Nähe. Messwerte von 21:00. 22.7 °C. Mooslandl (17km) 22.8 °C. Hall/Admont (18km) 21.6 °C. Weyer (19km) 21.1 °C. Rottenmann (29km) 23.6 °C. Windischgarsten (32km) 20.9 °C. Kalwang (34km) 21.5.

Endlich ist es wieder so weit! Nach fast vier Monaten Corona bedingter Zwangspause wird in der höchsten Schweizer Liga wieder.

Die Landtagsvizepräsidentin von Schleswig-Holstein, Aminata Touré (Grüne), und der SPD-Bundestagsabgeordnete Karamba Diaby.

Wetter & Webcam Sankt Gallen – St. Gallen So 14.06. Live Wetter Meteo St. Gallen / Sankt Gallen: 13°C, Wind: 9 km/h Westsüdwest. Morgen: Mo 15.06. Leichter Regen bis abends, maximal 17°C. 05:24 21:21. Europa Schweiz St. Gallen. Europa Schweiz St. Gallen Berneck.

Live Wetter & Webcams in St. Gallen Willkommen auf Panoramablick.com! Du findest hier das live Wetter für St. Gallen samt Webcams und viele weitere Informationen.

Webcam LSZR by PEOPLE’s Business Airport – Airport-Feuerwehr St. Gallen-Altenrhein www.fw-lszr.ch

Wtter Heidelberg Von Slim-Bikes spricht mancher Hersteller: Gemeint sind designlastige E-Bikes, denen man die Technik nicht ansieht. Sie sind. Standort Heidelberg. Eduard Witter GmbH Rudolf-Diesel Str. 24 · 69115 Heidelberg Tel. 06221 – 418 570 · Fax 06221 – 418 5770. Weiterlesen Das Wetter für Heidelberg, der Wetterbericht sowie die 9-Tages Wetter für den Stadtkreis Heidelberg. So

webcam sankt gallen

Des Weiteren wurden die fünf bisherigen Mitglieder des Verwaltungsrats Marcel Aebischer (Sektion St-Gallen-Appenzell I.Rh.),

In einer Woche gilt es wieder ernst: Der Spielbetrieb der Challenge League wird wieder aufgenommen. Im Rahmen der.

Eine gefühlte Ewigkeit ist es her, seit YB am 23. Februar im Topspiel der 23. Runde gegen St. Gallen mit dem spätesten Tor.

Am 10.6.2020 läuft der Spielfilm "Rosie" im Fernsehen. Sie sollten pünktlich um 23:15 Uhr bei 3sat einschalten, denn da wird.

Small und Mid Caps, im deutschen auch Nebenwerte genannt, haben es bei Anlegern oft nicht leicht. Die Börsenfonds, welche in.

Getränkeriese Red Bull soll auf der Suche nach einem neuen Fußball-Verein für das Red-Bull-Portfolio sein. Dabei sollen vier.

Live Cam St.gallen. Juni 9, 2020 von admin. Video Feed DIE THEMEN +++ Vater klagt an: Auch mein Kind wurde von Sandra M. misshandelt +++ Ausschreitungen in Minneapolis: Trump droht. Hackensack, New Jersey (ots/PRNewswire) – Multi-Kamera-Übertragungen über 5G-Netze mit einem einzigen Gerät: Die LU800 verändert die Spielregeln für die Produktion von Live-Nachrichten und dynamischen. Der.

Die TOP Medien präsentieren die erste News-App mit Push-Nachrichten speziell für die Stadt Winterthur und die Kantone Thurgau.

Webcam Flughafen St.Gallen-Altenrhein Live-Bilder und Zeitraffer LSZR / ACH. Live aus Altenrhein. LIVE LSZR 181350Z 27005KT 9999 FEW040 21/09 Q1013 NOSIG RMK K Zeitraffer heute. 2020-06-18 00:14:53 LSZR 172150Z AUTO VRB01KT 9999 BKN090 13/12 Q1015 Destinationen ab.

8.05 Uhr. Die Stadt Emsdetten wird allen Mitarbeitern in den Emsdettener Einrichtungen der Altenpflege und Behindertenhilfe einmalig einen Emsdetten-Gutschein über 25 Euro zukommen lassen. [+] 7.47 Uh.

Die Rede ist von St. Gallen, Bern.

plant Topsoft eine Reihe von Webinaren und Live Streams für den Online-Wissensaustausch.

Chatten Ohne Re Nackt Aerobic Naked gymnastic session at the gym and jerking off. 56:27. Jerking Aerobics Fitness Teen College Dildos and toys. 4 years ago Txxx. Lea Lexis in All Excess Scene. 7:32 . Aerobics Pornstar Solo Ass Masturbation Dildos and toys. 2 years ago HDzog. teen gymnast stretched for flexi sex. 12:47. Teen Aerobics. 4 years

Endlich ist es wieder so weit! Nach fast vier Monaten Corona bedingter Zwangspause wird in der höchsten Schweizer Liga wieder.

Fintechnews.ch interviewt in einer Serie von Kurz-Interviews bekannte Schweizer Fintech Influenzer. Heute sprechen wir mit.

Das Haus zur Rose und die Webcam auf das UNESCO-Welterbe. Live-Cam. Top-Bilder; Haus zur Rose; Keller der Rose. Keller mieten; So finden Sie uns ; Medienkompetenz; Vom Haus zur Rose.

.geht die Kamera auf das Kloster und den Klosterplatz St. Gallen, UNESCO-Welterbe. Bild aktualisieren – Reload Picture – Für einen Livestream klicken Sie auf das Bild! Gallusstrasse 18 9000 St.Gallen +41 71 222.

webcam st gallen klosterplatz

Holt YB den dritten Meistertitel in Serie? Die Super League beginnt mit dem Spiel der Berner gegen den FCZ neu. Die Partie.

Die aktuelle Wettersituation am Säntis-Gipfel und der Schwägalp sehen Sie auf unseren Live-Webcams und der Wetterprognose. Erleben Sie das Säntis-Panorama.

Das Schweizer Medienhaus CH Media setzt bei den meisten seiner Radiosender (Radio 24, Radio Argovia, Radio Melody, Radio FM1,

Webcam St. Gallen – Schweiz – wettervorhersage – Live Bilder und Videos rund um den ganzen Globus.

(mg) Am Samstag haben in mehreren Schweizer Städten zahlreiche Personen an unbewilligten Black-Live-Matters-Demonstrationen.

webcam st gallen klosterplatz

Categories: